Time;durP1;ratioP1;P1;durP2;ratioP2;P2;SDS_P1;SDS_P2;PMS_P1;PMS_P2;Temp;Humidity;BMP_temperature;BMP_pressure;BME280_temperature;BME280_humidity;BME280_pressure;Samples;Min_cycle;Max_cycle;Signal;HPM_P1;HPM_P2
2021/05/22 02:30:55;;;;;;;1.67;0.67;;;9.90;99.90;;;;;;6231264;23;20453;-88
2021/05/22 02:33:40;;;;;;;2.00;1.00;;;10.00;99.90;;;;;;6233339;23;20391;-89
2021/05/22 02:36:18;;;;;;;5.83;1.20;;;9.90;99.90;;;;;;6205628;23;20400;-87
2021/05/22 03:51:18;;;;;;;3.83;1.17;;;8.80;99.90;;;;;;6203646;22;20484;-89
2021/05/22 03:53:59;;;;;;;3.20;0.80;;;8.80;99.90;;;;;;6175818;23;20407;-89
2021/05/22 03:56:24;;;;;;;1.30;1.20;;;8.70;99.90;;;;;;6175946;23;20882;-88
2021/05/22 03:59:17;;;;;;;1.20;1.10;;;8.70;99.90;;;;;;6176431;23;20494;-90
2021/05/22 04:01:54;;;;;;;2.40;1.10;;;8.70;99.90;;;;;;6192585;23;20397;-89
2021/05/22 04:04:33;;;;;;;1.10;1.00;;;8.80;99.90;;;;;;6203989;23;20422;-89
2021/05/22 04:07:12;;;;;;;4.03;1.30;;;8.80;99.90;;;;;;6199738;23;20412;-88
2021/05/22 04:10:48;;;;;;;;;;;;;;;;;;;;;
2021/05/22 04:13:31;;;;;;;2.50;1.10;;;8.70;99.90;;;;;;6201684;23;20488;-90
2021/05/22 04:16:19;;;;;;;0.90;0.90;;;8.70;99.90;;;;;;6173536;23;20408;-90
2021/05/22 04:19:20;;;;;;;2.47;0.80;;;8.70;99.90;;;;;;6200780;23;20450;-91
2021/05/22 04:22:20;;;;;;;1.67;0.90;;;8.80;99.90;;;;;;6198835;23;20398;-90
2021/05/22 04:36:42;;;;;;;1.77;1.20;;;9.30;99.90;;;;;;6213280;22;20506;-88
2021/05/22 04:46:46;;;;;;;4.90;1.17;;;9.40;99.90;;;;;;6191774;23;20459;-96
2021/05/22 05:28:04;;;;;;;1.60;1.20;;;10.10;99.90;;;;;;6232997;22;20448;-93
2021/05/22 05:30:29;;;;;;;5.23;1.00;;;10.20;99.90;;;;;;6206713;23;20396;-94
2021/05/22 05:33:01;;;;;;;1.57;0.90;;;10.20;99.90;;;;;;6206765;23;20452;-91
2021/05/22 05:38:02;;;;;;;41.10;36.83;;;9.90;99.90;;;;;;6235025;22;20436;-92
2021/05/22 05:40:27;;;;;;;7.37;6.67;;;10.00;99.90;;;;;;6205891;23;20914;-92
2021/05/22 05:42:53;;;;;;;1.20;1.03;;;10.00;99.90;;;;;;6203567;23;20512;-94
2021/05/22 05:45:41;;;;;;;2.40;1.07;;;10.00;99.90;;;;;;6204664;23;20177;-92
2021/05/22 05:48:21;;;;;;;1.93;1.00;;;10.00;99.90;;;;;;6213030;23;20273;-93
2021/05/22 05:50:48;;;;;;;3.10;0.80;;;10.20;99.90;;;;;;6235030;23;20400;-93
2021/05/22 05:53:35;;;;;;;7.70;1.20;;;10.60;99.90;;;;;;6211254;23;20483;-94
2021/05/22 05:56:01;;;;;;;3.50;1.20;;;10.90;99.90;;;;;;6235469;23;20854;-91
2021/05/22 05:58:27;;;;;;;3.63;1.30;;;11.00;99.90;;;;;;6208828;23;20397;-93
2021/05/22 06:00:52;;;;;;;2.40;1.17;;;11.20;99.90;;;;;;6203089;23;20390;-93
2021/05/22 06:03:28;;;;;;;1.90;0.93;;;11.30;99.90;;;;;;6205809;23;20770;-92
2021/05/22 06:05:56;;;;;;;4.20;1.10;;;11.30;99.90;;;;;;6206472;23;20519;-91
2021/05/22 06:08:34;;;;;;;2.80;1.23;;;11.50;99.90;;;;;;6228917;23;20499;-91
2021/05/22 06:11:05;;;;;;;5.50;1.20;;;11.70;99.90;;;;;;6203396;23;20404;-93
2021/05/22 06:13:37;;;;;;;2.03;1.30;;;11.80;99.90;;;;;;6180556;23;20402;-89
2021/05/22 06:18:36;;;;;;;2.00;1.10;;;11.50;99.90;;;;;;6231353;23;20418;-90
2021/05/22 06:35:49;;;;;;;2.53;1.20;;;11.30;99.90;;;;;;6196936;23;20851;-96
2021/05/22 07:19:16;;;;;;;4.40;1.80;;;12.20;99.90;;;;;;6236422;23;20440;-93
2021/05/22 07:21:45;;;;;;;2.00;1.27;;;12.10;99.90;;;;;;6215952;23;20410;-90
2021/05/22 07:24:23;;;;;;;5.73;1.13;;;12.30;99.90;;;;;;6195380;23;20410;-92
2021/05/22 07:26:50;;;;;;;2.67;0.87;;;12.40;99.90;;;;;;6231008;23;20483;-94
2021/05/22 07:29:17;;;;;;;2.63;1.30;;;12.50;99.90;;;;;;6236665;22;20436;-93
2021/05/22 07:31:44;;;;;;;2.70;1.57;;;12.50;99.90;;;;;;6219132;23;20400;-94
2021/05/22 07:34:25;;;;;;;2.43;1.20;;;12.60;99.50;;;;;;6217067;23;20398;-94
2021/05/22 07:37:08;;;;;;;3.63;0.80;;;12.60;99.30;;;;;;6241349;23;20770;-95
2021/05/22 07:40:02;;;;;;;2.23;1.10;;;12.70;99.30;;;;;;6218913;23;20410;-95
2021/05/22 07:45:48;;;;;;;2.33;1.00;;;12.90;98.60;;;;;;6256108;23;20477;-96
2021/05/22 09:11:51;;;;;;;3.43;0.93;;;14.90;88.00;;;;;;6211095;23;20438;-93
2021/05/22 09:14:39;;;;;;;4.67;0.83;;;15.00;89.10;;;;;;6181701;23;20502;-92
2021/05/22 09:17:11;;;;;;;1.83;0.90;;;15.20;88.10;;;;;;6209344;23;20379;-94
2021/05/22 09:19:37;;;;;;;1.50;0.67;;;15.20;87.60;;;;;;6182716;23;20395;-92
2021/05/22 09:22:21;;;;;;;1.37;0.60;;;15.20;87.20;;;;;;6180610;23;20397;-93
2021/05/22 09:25:08;;;;;;;2.50;0.80;;;15.60;85.10;;;;;;6180103;23;20402;-94
2021/05/22 09:27:40;;;;;;;2.07;0.80;;;15.60;82.80;;;;;;6207158;23;20662;-96
2021/05/22 09:30:10;;;;;;;2.17;0.90;;;15.40;83.10;;;;;;6180810;23;20460;-94
2021/05/22 09:32:39;;;;;;;1.63;1.10;;;15.30;83.10;;;;;;6178582;23;20437;-93
2021/05/22 09:35:09;;;;;;;1.33;0.77;;;15.30;83.80;;;;;;6176485;23;20399;-92
2021/05/22 09:37:53;;;;;;;1.57;1.10;;;15.60;84.70;;;;;;6179138;23;20413;-94
2021/05/22 09:40:27;;;;;;;2.80;1.30;;;15.60;81.00;;;;;;6178125;23;20445;-94
2021/05/22 09:43:00;;;;;;;4.60;1.33;;;16.00;81.50;;;;;;6181591;23;20793;-91
2021/05/22 09:45:33;;;;;;;4.90;1.10;;;15.70;81.00;;;;;;6178851;23;20401;-93
2021/05/22 09:48:23;;;;;;;2.20;0.93;;;15.30;81.70;;;;;;6206594;23;20525;-91
2021/05/22 09:51:15;;;;;;;2.53;0.80;;;15.40;78.60;;;;;;6178818;23;20500;-92
2021/05/22 09:53:43;;;;;;;2.60;0.87;;;15.50;80.30;;;;;;6172773;23;20485;-92
2021/05/22 09:56:20;;;;;;;3.20;1.23;;;15.50;79.80;;;;;;6147026;23;20400;-96
2021/05/22 09:58:54;;;;;;;3.63;1.60;;;15.90;80.70;;;;;;6208863;23;20409;-95
2021/05/22 10:01:30;;;;;;;3.50;1.10;;;16.20;77.70;;;;;;6184433;23;20722;-94
2021/05/22 10:04:22;;;;;;;1.60;1.00;;;16.20;75.90;;;;;;6181837;23;20417;-95
2021/05/22 10:06:48;;;;;;;1.97;1.20;;;16.20;77.20;;;;;;6178479;23;20414;-93
2021/05/22 10:09:23;;;;;;;1.00;0.67;;;15.90;80.20;;;;;;6154137;23;20457;-91
2021/05/22 10:12:17;;;;;;;2.00;0.90;;;16.00;73.60;;;;;;6178331;23;20387;-91
2021/05/22 10:15:01;;;;;;;1.93;0.50;;;15.80;72.50;;;;;;6181951;23;20390;-92
2021/05/22 10:17:27;;;;;;;1.97;0.80;;;16.00;71.60;;;;;;6182645;23;20593;-93
2021/05/22 10:19:53;;;;;;;2.30;0.87;;;16.50;72.40;;;;;;6159401;23;20464;-91
2021/05/22 10:22:22;;;;;;;2.73;0.90;;;16.70;72.20;;;;;;6183201;23;20386;-95
2021/05/22 10:25:09;;;;;;;2.30;0.67;;;16.80;70.40;;;;;;6179101;23;20517;-94
2021/05/22 10:27:39;;;;;;;2.70;0.80;;;16.60;68.90;;;;;;6181410;23;20430;-91
2021/05/22 10:30:09;;;;;;;2.10;1.00;;;17.10;72.00;;;;;;6179178;23;20433;-93
2021/05/22 10:32:48;;;;;;;0.43;0.43;;;17.10;67.10;;;;;;6179659;23;20395;-93
2021/05/22 10:35:29;;;;;;;4.40;1.07;;;17.00;66.80;;;;;;6180095;23;20391;-93
2021/05/22 10:37:57;;;;;;;1.67;0.60;;;17.20;67.60;;;;;;6179593;23;20398;-94
2021/05/22 10:40:49;;;;;;;1.63;0.80;;;17.30;65.80;;;;;;6180168;23;20393;-95
2021/05/22 10:43:15;;;;;;;3.23;0.77;;;16.40;65.20;;;;;;6181291;23;20730;-93
2021/05/22 10:45:42;;;;;;;4.80;0.90;;;16.00;64.60;;;;;;6182028;23;20413;-94
2021/05/22 10:48:21;;;;;;;1.40;0.70;;;15.90;65.90;;;;;;6183137;23;20430;-93
2021/05/22 10:50:50;;;;;;;1.73;0.60;;;15.90;65.80;;;;;;6179625;23;20903;-93
2021/05/22 10:53:34;;;;;;;2.80;1.03;;;16.20;67.40;;;;;;6182280;23;20398;-93
2021/05/22 10:56:15;;;;;;;2.10;0.70;;;17.00;66.10;;;;;;6182551;23;20446;-95
2021/05/22 10:59:00;;;;;;;1.80;0.77;;;17.00;63.60;;;;;;6180796;23;20728;-94
2021/05/22 11:01:31;;;;;;;2.90;1.20;;;16.50;62.70;;;;;;6182008;23;20725;-95
2021/05/22 11:04:11;;;;;;;1.13;0.63;;;16.50;63.60;;;;;;6206295;23;20406;-93
2021/05/22 11:06:49;;;;;;;1.47;0.90;;;16.30;64.20;;;;;;6182564;23;20749;-93
2021/05/22 11:09:38;;;;;;;1.33;0.77;;;16.50;65.00;;;;;;6209816;23;20453;-93
2021/05/22 11:12:30;;;;;;;2.20;0.90;;;17.20;62.80;;;;;;6181205;23;20757;-95
2021/05/22 11:15:12;;;;;;;1.00;0.70;;;17.10;59.40;;;;;;6183968;23;20411;-93
2021/05/22 11:17:41;;;;;;;2.63;0.70;;;16.80;60.80;;;;;;6183866;23;20402;-93
2021/05/22 11:20:31;;;;;;;2.07;1.00;;;16.70;60.10;;;;;;6184291;23;20406;-93
2021/05/22 11:23:01;;;;;;;1.10;0.50;;;16.40;62.00;;;;;;6207364;23;20925;-93
2021/05/22 11:25:42;;;;;;;1.07;0.63;;;16.70;62.30;;;;;;6158491;23;20403;-93
2021/05/22 11:28:11;;;;;;;2.10;0.60;;;16.90;62.60;;;;;;6180394;23;20435;-92
2021/05/22 11:38:29;;;;;;;1.63;0.80;;;18.00;57.10;;;;;;6242300;22;20467;-95
2021/05/22 11:44:34;;;;;;;2.43;0.70;;;17.10;58.50;;;;;;6122344;23;20393;-96
2021/05/22 12:44:15;;;;;;;;;;;;;;;;;;;;;
2021/05/22 19:54:01;;;;;;;12.70;9.60;;;13.70;81.60;;;;;;6217832;22;20858;-94
2021/05/22 20:48:06;;;;;;;4.77;1.90;;;12.50;97.90;;;;;;6235851;23;20669;-87
2021/05/22 20:50:32;;;;;;;3.00;2.00;;;12.50;97.30;;;;;;6232976;22;20398;-88
2021/05/22 20:53:23;;;;;;;2.77;2.00;;;12.40;97.80;;;;;;6235542;23;20765;-88
2021/05/22 20:55:51;;;;;;;1.73;1.63;;;12.40;98.30;;;;;;6233113;23;20541;-87
2021/05/22 20:58:48;;;;;;;2.80;2.20;;;12.50;98.10;;;;;;6232040;23;20394;-87
2021/05/22 21:01:17;;;;;;;2.00;1.70;;;12.50;97.50;;;;;;6233376;22;20390;-87
2021/05/22 21:03:45;;;;;;;2.20;1.97;;;12.50;98.00;;;;;;6232843;23;20792;-88
2021/05/22 21:06:10;;;;;;;5.17;2.00;;;12.40;98.40;;;;;;6233972;23;20489;-88
2021/05/22 21:08:36;;;;;;;2.73;2.53;;;12.30;98.00;;;;;;6233529;23;20461;-88
2021/05/22 21:11:05;;;;;;;2.23;1.80;;;12.30;99.80;;;;;;6235478;23;20490;-87
2021/05/22 21:13:31;;;;;;;4.03;2.50;;;12.20;99.90;;;;;;6232638;23;20163;-88
2021/05/22 21:15:58;;;;;;;4.03;2.37;;;12.10;99.90;;;;;;6231445;23;20740;-88
2021/05/22 21:18:36;;;;;;;3.40;3.10;;;12.30;98.30;;;;;;6231132;23;20417;-88
2021/05/22 21:21:04;;;;;;;3.20;2.90;;;12.30;97.80;;;;;;6233345;23;20723;-89
2021/05/22 21:23:30;;;;;;;4.67;3.20;;;12.40;98.40;;;;;;6232224;23;21269;-88
2021/05/22 21:25:57;;;;;;;5.60;2.40;;;12.40;97.10;;;;;;6233511;23;20382;-88
2021/05/22 21:28:26;;;;;;;2.97;2.27;;;12.50;96.90;;;;;;6235828;23;20195;-88
2021/05/22 21:30:54;;;;;;;2.60;2.23;;;12.60;97.40;;;;;;6233552;23;20398;-88
2021/05/22 21:33:19;;;;;;;2.33;2.10;;;12.70;98.10;;;;;;6233325;23;20598;-87
2021/05/22 21:35:51;;;;;;;2.40;2.20;;;12.70;99.90;;;;;;6206151;23;20402;-88
2021/05/22 21:38:21;;;;;;;3.77;2.60;;;12.60;99.90;;;;;;6230953;23;20199;-88
2021/05/22 21:40:50;;;;;;;3.33;2.53;;;12.60;99.40;;;;;;6233383;23;20400;-88
2021/05/22 21:43:15;;;;;;;2.90;2.10;;;12.70;98.30;;;;;;6232919;23;20481;-88
2021/05/22 21:45:50;;;;;;;2.70;2.43;;;12.80;97.60;;;;;;6232510;23;20417;-89
2021/05/22 21:48:17;;;;;;;3.00;2.30;;;12.80;97.60;;;;;;6231403;23;20266;-88
2021/05/22 21:50:44;;;;;;;2.80;2.30;;;12.80;98.60;;;;;;6232876;23;20628;-88
2021/05/22 21:53:10;;;;;;;2.70;2.27;;;12.70;99.00;;;;;;6233981;23;20397;-88
2021/05/22 21:55:43;;;;;;;2.83;2.03;;;12.70;99.10;;;;;;6233900;23;20386;-89
2021/05/22 21:58:11;;;;;;;2.40;2.17;;;12.60;99.50;;;;;;6234700;23;20448;-89
2021/05/22 22:00:47;;;;;;;3.37;2.30;;;12.50;99.80;;;;;;6234199;23;20711;-89
2021/05/22 22:03:17;;;;;;;3.70;2.40;;;12.50;99.90;;;;;;6233494;23;20397;-88
2021/05/22 22:05:45;;;;;;;4.80;2.77;;;12.70;99.80;;;;;;6233428;23;20857;-88
2021/05/22 22:08:21;;;;;;;2.60;2.37;;;12.60;99.90;;;;;;6233699;23;20429;-89
2021/05/22 22:11:17;;;;;;;5.50;2.50;;;12.50;99.90;;;;;;6184472;23;20409;-89
2021/05/22 22:13:47;;;;;;;1.97;1.83;;;12.50;99.90;;;;;;6230399;23;20729;-88
2021/05/22 22:16:15;;;;;;;3.40;2.50;;;12.50;99.70;;;;;;6231415;23;20397;-88
2021/05/22 22:18:43;;;;;;;2.40;2.20;;;12.50;99.30;;;;;;6231532;23;20420;-88
2021/05/22 22:21:16;;;;;;;4.00;2.43;;;12.60;99.10;;;;;;6207014;23;20429;-88
2021/05/22 22:23:56;;;;;;;2.80;2.53;;;12.60;99.30;;;;;;6235271;23;20410;-88
2021/05/22 22:26:26;;;;;;;4.10;2.73;;;12.50;99.90;;;;;;6227810;23;20398;-88
2021/05/22 22:28:56;;;;;;;2.43;2.23;;;12.40;99.90;;;;;;6232405;23;20741;-88
2021/05/22 22:31:22;;;;;;;4.03;2.60;;;12.30;99.90;;;;;;6232501;23;20386;-88
2021/05/22 22:33:49;;;;;;;3.13;2.67;;;12.20;99.90;;;;;;6232487;23;20398;-90
2021/05/22 22:36:15;;;;;;;3.87;2.50;;;12.20;99.90;;;;;;6232120;23;20413;-89
2021/05/22 22:39:02;;;;;;;3.20;2.90;;;12.30;99.90;;;;;;6233314;23;20422;-89
2021/05/22 22:41:29;;;;;;;3.20;2.80;;;12.40;99.90;;;;;;6232530;23;20392;-89
2021/05/22 22:43:56;;;;;;;3.20;2.90;;;12.30;99.90;;;;;;6235725;23;20456;-90
2021/05/22 22:46:22;;;;;;;2.80;2.60;;;12.20;99.90;;;;;;6232366;23;20414;-89
2021/05/22 22:49:15;;;;;;;1.40;1.30;;;12.20;99.90;;;;;;6232083;23;20981;-90
2021/05/22 22:51:40;;;;;;;1.53;1.43;;;12.10;99.90;;;;;;6205909;23;20248;-91
2021/05/22 22:54:06;;;;;;;3.90;2.40;;;12.10;99.90;;;;;;6235418;22;20394;-88
2021/05/22 22:56:46;;;;;;;2.93;2.20;;;12.00;99.90;;;;;;6234273;23;20797;-89
2021/05/22 22:59:14;;;;;;;1.40;1.30;;;11.90;99.90;;;;;;6232337;23;20593;-89
2021/05/22 23:01:40;;;;;;;2.03;1.57;;;11.80;99.90;;;;;;6235414;23;20400;-89
2021/05/22 23:04:06;;;;;;;2.13;1.90;;;11.70;99.90;;;;;;6235310;23;20485;-89
2021/05/22 23:06:31;;;;;;;1.40;1.30;;;11.70;99.90;;;;;;6233793;23;20205;-89
2021/05/22 23:08:57;;;;;;;1.57;1.47;;;11.70;99.90;;;;;;6234732;23;20190;-88
2021/05/22 23:11:23;;;;;;;2.00;1.47;;;11.60;99.90;;;;;;6235280;23;20155;-89
2021/05/22 23:13:48;;;;;;;2.40;1.70;;;11.50;99.90;;;;;;6233730;23;20463;-88
2021/05/22 23:16:14;;;;;;;2.13;1.10;;;11.40;99.90;;;;;;6235710;23;20254;-88
2021/05/22 23:18:40;;;;;;;2.57;1.37;;;11.30;99.90;;;;;;6234554;23;20663;-88
2021/05/22 23:21:06;;;;;;;2.60;1.30;;;11.30;99.90;;;;;;6236792;23;20279;-89
2021/05/22 23:23:34;;;;;;;1.10;1.00;;;11.20;99.90;;;;;;6236517;23;20166;-87
2021/05/22 23:26:00;;;;;;;2.30;1.40;;;11.20;99.90;;;;;;6233207;23;20719;-88
2021/05/22 23:28:25;;;;;;;1.93;1.73;;;11.20;99.90;;;;;;6234994;23;20437;-88
2021/05/22 23:30:52;;;;;;;1.87;1.43;;;11.20;99.90;;;;;;6236210;23;20163;-88
2021/05/22 23:33:17;;;;;;;1.03;0.93;;;11.10;99.90;;;;;;6237222;23;20171;-88
2021/05/22 23:35:45;;;;;;;1.13;1.03;;;11.00;99.90;;;;;;6237104;23;20412;-89
2021/05/22 23:38:11;;;;;;;1.37;1.27;;;11.00;99.90;;;;;;6234454;23;20400;-88
2021/05/22 23:40:38;;;;;;;2.27;1.50;;;10.90;99.90;;;;;;6235975;23;20404;-88
2021/05/22 23:43:05;;;;;;;1.13;1.03;;;10.80;99.90;;;;;;6235947;23;20614;-89
2021/05/22 23:45:31;;;;;;;1.30;1.20;;;10.70;99.90;;;;;;6234828;23;20484;-88
2021/05/22 23:47:57;;;;;;;1.10;1.00;;;10.70;99.90;;;;;;6235436;23;20442;-88
2021/05/22 23:50:24;;;;;;;2.00;1.10;;;10.80;99.90;;;;;;6233695;23;20401;-89
2021/05/22 23:52:51;;;;;;;1.43;1.07;;;10.70;99.90;;;;;;6234986;23;20389;-89
2021/05/22 23:55:19;;;;;;;1.47;1.17;;;10.70;99.90;;;;;;6235668;23;20437;-89
2021/05/22 23:57:46;;;;;;;2.30;1.23;;;10.70;99.90;;;;;;6235920;23;20882;-89
